createdAt,value
2022-08-22T00:00:56.224Z,448.00
2022-08-22T00:01:56.317Z,446.00
2022-08-22T00:02:46.876Z,451.00
2022-08-22T00:02:57.487Z,445.00
2022-08-22T00:03:00.025Z,458.00
2022-08-22T00:03:17.326Z,443.00
2022-08-22T00:03:57.262Z,441.00
2022-08-22T00:04:56.221Z,446.00
2022-08-22T00:05:56.176Z,446.00
2022-08-22T00:06:56.182Z,448.00
2022-08-22T00:07:56.294Z,444.00
2022-08-22T00:08:56.113Z,449.00
2022-08-22T00:09:56.154Z,448.00
2022-08-22T00:10:56.084Z,449.00
2022-08-22T00:11:56.075Z,450.00
2022-08-22T00:12:56.085Z,454.00
2022-08-22T00:14:01.796Z,454.00
2022-08-22T00:14:57.045Z,434.00
2022-08-22T00:15:56.024Z,445.00
2022-08-22T00:16:56.105Z,442.00
2022-08-22T00:17:56.087Z,444.00
2022-08-22T00:18:56.074Z,450.00
2022-08-22T00:19:55.987Z,448.00
2022-08-22T00:20:55.965Z,447.00
2022-08-22T00:21:55.996Z,404.00
2022-08-22T00:22:55.932Z,429.00
2022-08-22T00:23:55.975Z,446.00
2022-08-22T00:24:55.916Z,451.00
2022-08-22T00:25:55.971Z,443.00
2022-08-22T00:26:55.913Z,438.00
2022-08-22T00:27:55.931Z,439.00
2022-08-22T00:28:55.943Z,441.00
2022-08-22T00:29:55.847Z,449.00
2022-08-22T00:30:55.854Z,439.00
2022-08-22T00:31:55.806Z,447.00
2022-08-22T00:32:55.808Z,437.00
2022-08-22T00:33:55.788Z,442.00
2022-08-22T00:34:55.788Z,436.00
2022-08-22T00:35:55.860Z,441.00
2022-08-22T00:36:55.746Z,453.00
2022-08-22T00:37:55.880Z,452.00
2022-08-22T00:38:55.717Z,419.00
2022-08-22T00:39:55.756Z,454.00
2022-08-22T00:40:55.766Z,449.00
2022-08-22T00:41:55.678Z,452.00
2022-08-22T00:42:55.704Z,440.00
2022-08-22T00:43:55.647Z,446.00
2022-08-22T00:44:55.644Z,450.00
2022-08-22T00:45:55.900Z,447.00
2022-08-22T00:46:55.620Z,451.00
2022-08-22T00:47:55.696Z,462.00
2022-08-22T00:48:55.586Z,453.00
2022-08-22T00:49:55.623Z,451.00
2022-08-22T00:50:55.588Z,450.00
2022-08-22T00:51:55.568Z,455.00
2022-08-22T00:52:56.210Z,459.00
2022-08-22T00:53:55.522Z,454.00
2022-08-22T00:54:55.526Z,454.00
2022-08-22T00:55:55.519Z,457.00
2022-08-22T00:56:55.559Z,452.00
2022-08-22T00:57:55.508Z,443.00
2022-08-22T00:58:55.448Z,453.00
2022-08-22T00:59:55.470Z,442.00
2022-08-22T01:00:55.444Z,445.00
2022-08-22T01:01:55.437Z,445.00
2022-08-22T01:02:55.392Z,448.00
2022-08-22T01:03:55.449Z,447.00
2022-08-22T01:04:55.372Z,449.00
2022-08-22T01:05:55.358Z,451.00
2022-08-22T01:06:55.407Z,451.00
2022-08-22T01:07:55.385Z,448.00
2022-08-22T01:08:55.368Z,453.00
2022-08-22T01:09:55.320Z,453.00
2022-08-22T01:10:55.329Z,448.00
2022-08-22T01:11:55.290Z,449.00
2022-08-22T01:12:55.260Z,451.00
2022-08-22T01:13:55.294Z,446.00
2022-08-22T01:14:55.230Z,449.00
2022-08-22T01:15:55.251Z,450.00
2022-08-22T01:16:55.214Z,451.00
2022-08-22T01:17:55.329Z,452.00
2022-08-22T01:18:55.181Z,457.00
2022-08-22T01:19:55.161Z,459.00
2022-08-22T01:20:55.151Z,454.00
2022-08-22T01:21:55.162Z,450.00
2022-08-22T01:22:55.132Z,452.00
2022-08-22T01:23:55.121Z,441.00
2022-08-22T01:24:55.212Z,442.00
2022-08-22T01:25:55.082Z,446.00
2022-08-22T01:26:55.128Z,447.00
2022-08-22T01:27:55.095Z,453.00
2022-08-22T01:28:55.051Z,450.00
2022-08-22T01:29:55.043Z,452.00
2022-08-22T01:30:55.031Z,452.00
2022-08-22T01:31:55.132Z,444.00
2022-08-22T01:32:56.919Z,446.00
2022-08-22T01:33:55.029Z,358.00
2022-08-22T01:34:54.974Z,445.00
2022-08-22T01:35:55.003Z,442.00
2022-08-22T01:36:54.946Z,444.00
2022-08-22T01:37:54.979Z,443.00
2022-08-22T01:38:54.963Z,445.00
2022-08-22T01:39:54.934Z,453.00
2022-08-22T01:40:54.898Z,451.00
2022-08-22T01:41:54.873Z,443.00
2022-08-22T01:42:54.889Z,443.00
2022-08-22T01:43:59.740Z,449.00
2022-08-22T01:44:56.027Z,440.00
2022-08-22T01:45:54.858Z,441.00
2022-08-22T01:46:54.831Z,442.00
2022-08-22T01:47:54.924Z,447.00
2022-08-22T01:48:54.794Z,447.00
2022-08-22T01:49:54.773Z,454.00
2022-08-22T01:50:54.832Z,445.00
2022-08-22T01:51:54.744Z,444.00
2022-08-22T01:52:54.746Z,464.00
2022-08-22T01:53:54.725Z,452.00
2022-08-22T01:54:54.744Z,449.00
2022-08-22T01:55:54.705Z,449.00
2022-08-22T01:56:54.714Z,457.00
2022-08-22T01:57:54.811Z,452.00
2022-08-22T01:58:54.654Z,454.00
2022-08-22T01:59:54.637Z,444.00
2022-08-22T02:00:54.656Z,454.00
2022-08-22T02:01:54.606Z,451.00
2022-08-22T02:02:54.835Z,451.00
2022-08-22T02:03:54.584Z,455.00
2022-08-22T02:04:54.625Z,452.00
2022-08-22T02:05:54.555Z,449.00
2022-08-22T02:06:54.593Z,449.00
2022-08-22T02:07:54.538Z,444.00
2022-08-22T02:08:54.545Z,447.00
2022-08-22T02:09:54.546Z,455.00
2022-08-22T02:10:54.505Z,433.00
2022-08-22T02:11:54.528Z,445.00
2022-08-22T02:12:54.469Z,442.00
2022-08-22T02:13:54.477Z,445.00
2022-08-22T02:14:54.467Z,442.00
2022-08-22T02:15:54.428Z,432.00
2022-08-22T02:16:54.457Z,449.00
2022-08-22T02:17:54.400Z,446.00
2022-08-22T02:18:54.462Z,444.00
2022-08-22T02:19:54.376Z,440.00
2022-08-22T02:20:54.440Z,440.00
2022-08-22T02:21:54.383Z,455.00
2022-08-22T02:22:54.338Z,451.00
2022-08-22T02:23:56.082Z,443.00
2022-08-22T02:24:54.308Z,443.00
2022-08-22T02:25:54.297Z,438.00
2022-08-22T02:26:54.300Z,438.00
2022-08-22T02:27:54.343Z,433.00
2022-08-22T02:28:56.588Z,443.00
2022-08-22T02:29:54.248Z,449.00
2022-08-22T02:30:54.227Z,454.00
2022-08-22T02:31:54.208Z,452.00
2022-08-22T02:32:54.250Z,446.00
2022-08-22T02:33:54.189Z,447.00
2022-08-22T02:34:54.169Z,444.00
2022-08-22T02:35:54.180Z,448.00
2022-08-22T02:36:54.148Z,446.00
2022-08-22T02:37:54.175Z,446.00
2022-08-22T02:38:54.129Z,450.00
2022-08-22T02:39:54.208Z,440.00
2022-08-22T02:40:54.091Z,449.00
2022-08-22T02:41:54.181Z,454.00
2022-08-22T02:42:54.070Z,451.00
2022-08-22T02:43:54.051Z,442.00
2022-08-22T02:44:54.060Z,444.00
2022-08-22T02:45:54.034Z,449.00
2022-08-22T02:46:54.101Z,448.00
2022-08-22T02:47:54.024Z,464.00
2022-08-22T02:48:53.981Z,450.00
2022-08-22T02:49:54.003Z,440.00
2022-08-22T02:50:53.990Z,437.00
2022-08-22T02:51:54.013Z,438.00
2022-08-22T02:52:53.939Z,443.00
2022-08-22T02:53:53.911Z,443.00
2022-08-22T02:54:53.948Z,446.00
2022-08-22T02:55:53.891Z,442.00
2022-08-22T02:56:53.941Z,444.00
2022-08-22T02:57:53.861Z,444.00
2022-08-22T02:58:53.900Z,436.00
2022-08-22T02:59:54.853Z,434.00
2022-08-22T03:00:53.890Z,432.00
2022-08-22T03:01:53.836Z,433.00
2022-08-22T03:02:53.822Z,434.00
2022-08-22T03:03:53.802Z,438.00
2022-08-22T03:04:53.771Z,447.00
2022-08-22T03:05:55.980Z,445.00
2022-08-22T03:06:54.745Z,453.00
2022-08-22T03:07:53.752Z,455.00
2022-08-22T03:08:53.750Z,453.00
2022-08-22T03:09:53.702Z,446.00
2022-08-22T03:10:53.723Z,467.00
2022-08-22T03:11:53.672Z,457.00
2022-08-22T03:12:57.415Z,449.00
2022-08-22T03:13:53.664Z,464.00
2022-08-22T03:14:53.653Z,462.00
2022-08-22T03:15:53.642Z,466.00
2022-08-22T03:16:53.614Z,455.00
2022-08-22T03:17:53.664Z,432.00
2022-08-22T03:18:53.586Z,451.00
2022-08-22T03:19:53.643Z,440.00
2022-08-22T03:20:53.576Z,437.00
2022-08-22T03:21:53.631Z,441.00
2022-08-22T03:22:53.536Z,449.00
2022-08-22T03:23:53.527Z,445.00
2022-08-22T03:24:53.561Z,447.00
2022-08-22T03:25:53.492Z,441.00
2022-08-22T03:26:53.612Z,443.00
2022-08-22T03:27:53.474Z,444.00
2022-08-22T03:28:59.763Z,486.00
2022-08-22T03:29:54.445Z,434.00
2022-08-22T03:30:53.434Z,436.00
2022-08-22T03:31:53.484Z,439.00
2022-08-22T03:32:53.425Z,453.00
2022-08-22T03:33:53.401Z,441.00
2022-08-22T03:34:53.374Z,452.00
2022-08-22T03:35:53.451Z,439.00
2022-08-22T03:36:53.365Z,438.00
2022-08-22T03:37:53.366Z,456.00
2022-08-22T03:38:53.387Z,449.00
2022-08-22T03:39:53.350Z,457.00
2022-08-22T03:40:53.356Z,455.00
2022-08-22T03:41:53.287Z,475.00
2022-08-22T03:42:53.336Z,447.00
2022-08-22T03:43:53.262Z,448.00
2022-08-22T03:44:53.247Z,449.00
2022-08-22T03:45:53.266Z,433.00
2022-08-22T03:46:53.233Z,434.00
2022-08-22T03:47:53.243Z,453.00
2022-08-22T03:48:53.206Z,441.00
2022-08-22T03:49:57.674Z,446.00
2022-08-22T03:50:54.603Z,455.00
2022-08-22T03:51:53.147Z,438.00
2022-08-22T03:52:53.147Z,445.00
2022-08-22T03:53:53.136Z,438.00
2022-08-22T03:54:53.190Z,432.00
2022-08-22T03:55:53.096Z,433.00
2022-08-22T03:56:54.104Z,430.00
2022-08-22T03:57:53.120Z,439.00
2022-08-22T03:58:53.059Z,415.00
2022-08-22T03:59:53.097Z,434.00
2022-08-22T04:00:53.125Z,444.00
2022-08-22T04:01:53.090Z,447.00
2022-08-22T04:02:53.020Z,436.00
2022-08-22T04:03:52.996Z,427.00
2022-08-22T04:04:53.018Z,425.00
2022-08-22T04:05:53.477Z,176.00
2022-08-22T04:06:53.652Z,176.00
2022-08-22T04:07:52.970Z,175.00
2022-08-22T04:08:52.988Z,207.00
2022-08-22T04:09:52.917Z,312.00
2022-08-22T04:10:53.009Z,326.00
2022-08-22T04:11:52.903Z,321.00
2022-08-22T04:12:52.879Z,323.00
2022-08-22T04:13:52.869Z,322.00
2022-08-22T04:14:52.851Z,321.00
2022-08-22T04:15:52.861Z,324.00
2022-08-22T04:16:52.857Z,331.00
2022-08-22T04:17:52.903Z,322.00
2022-08-22T04:18:52.809Z,328.00
2022-08-22T04:19:52.843Z,325.00
2022-08-22T04:20:52.770Z,330.00
2022-08-22T04:21:52.812Z,333.00
2022-08-22T04:22:52.762Z,327.00
2022-08-22T04:23:52.730Z,334.00
2022-08-22T04:24:52.759Z,338.00
2022-08-22T04:25:52.725Z,330.00
2022-08-22T04:26:52.782Z,334.00
2022-08-22T04:27:52.759Z,334.00
2022-08-22T04:28:52.672Z,298.00
2022-08-22T04:29:52.726Z,338.00
2022-08-22T04:30:52.640Z,334.00
2022-08-22T04:31:52.661Z,326.00
2022-08-22T04:32:52.669Z,325.00
2022-08-22T04:33:52.614Z,331.00
2022-08-22T04:34:52.581Z,330.00
2022-08-22T04:35:52.563Z,335.00
2022-08-22T04:36:52.631Z,329.00
2022-08-22T04:37:52.616Z,326.00
2022-08-22T04:38:52.603Z,329.00
2022-08-22T04:39:52.554Z,353.00
2022-08-22T04:40:52.521Z,333.00
2022-08-22T04:41:52.552Z,119.00
2022-08-22T04:42:52.483Z,437.00
2022-08-22T04:43:52.529Z,438.00
2022-08-22T04:44:52.472Z,362.00
2022-08-22T04:45:52.482Z,361.00
2022-08-22T04:46:52.454Z,363.00
2022-08-22T04:47:54.013Z,367.00
2022-08-22T04:48:52.452Z,443.00
2022-08-22T04:49:52.382Z,447.00
2022-08-22T04:50:52.401Z,450.00
2022-08-22T04:51:52.364Z,450.00
2022-08-22T04:52:52.395Z,360.00
2022-08-22T04:53:52.333Z,472.00
2022-08-22T04:54:52.314Z,551.00
2022-08-22T04:55:52.359Z,465.00
2022-08-22T04:56:52.323Z,465.00
2022-08-22T04:57:52.358Z,449.00
2022-08-22T04:58:52.265Z,447.00
2022-08-22T04:59:52.283Z,0.00
2022-08-22T05:00:52.253Z,454.00
2022-08-22T05:01:52.337Z,447.00
2022-08-22T05:02:52.224Z,416.00
2022-08-22T05:03:52.196Z,441.00
2022-08-22T05:04:52.184Z,447.00
2022-08-22T05:05:52.185Z,452.00
2022-08-22T05:06:52.276Z,453.00
2022-08-22T05:07:52.153Z,446.00
2022-08-22T05:08:53.799Z,446.00
2022-08-22T05:09:52.155Z,445.00
2022-08-22T05:10:52.174Z,447.00
2022-08-22T05:11:52.101Z,447.00
2022-08-22T05:12:52.117Z,444.00
2022-08-22T05:13:52.167Z,445.00
2022-08-22T05:14:54.448Z,450.00
2022-08-22T05:15:52.060Z,451.00
2022-08-22T05:16:52.024Z,451.00
2022-08-22T05:17:52.117Z,453.00
2022-08-22T05:18:52.025Z,452.00
2022-08-22T05:19:52.001Z,449.00
2022-08-22T05:20:52.087Z,456.00
2022-08-22T05:21:51.957Z,453.00
2022-08-22T05:22:52.056Z,453.00
2022-08-22T05:23:52.073Z,456.00
2022-08-22T05:24:51.906Z,452.00
2022-08-22T05:25:51.977Z,449.00
2022-08-22T05:26:51.917Z,458.00
2022-08-22T05:27:55.441Z,456.00
2022-08-22T05:28:53.482Z,455.00
2022-08-22T05:29:51.898Z,452.00
2022-08-22T05:30:51.838Z,454.00
2022-08-22T05:31:51.869Z,448.00
2022-08-22T05:32:51.930Z,443.00
2022-08-22T05:33:51.798Z,449.00
2022-08-22T05:34:51.779Z,463.00
2022-08-22T05:35:57.213Z,459.00
2022-08-22T05:36:52.880Z,441.00
2022-08-22T05:37:51.788Z,448.00
2022-08-22T05:38:51.726Z,445.00
2022-08-22T05:39:51.857Z,448.00
2022-08-22T05:40:51.708Z,448.00
2022-08-22T05:41:51.707Z,450.00
2022-08-22T05:42:51.718Z,447.00
2022-08-22T05:43:51.673Z,445.00
2022-08-22T05:44:51.788Z,450.00
2022-08-22T05:45:51.637Z,446.00
2022-08-22T05:46:51.660Z,451.00
2022-08-22T05:47:51.626Z,442.00
2022-08-22T05:48:51.698Z,441.00
2022-08-22T05:49:51.599Z,440.00
2022-08-22T05:50:51.577Z,437.00
2022-08-22T05:51:51.620Z,448.00
2022-08-22T05:52:51.548Z,450.00
2022-08-22T05:53:51.583Z,444.00
2022-08-22T05:54:51.540Z,451.00
2022-08-22T05:55:51.540Z,441.00
2022-08-22T05:56:51.731Z,448.00
2022-08-22T05:57:52.510Z,447.00
2022-08-22T05:58:51.479Z,448.00
2022-08-22T05:59:51.616Z,449.00
2022-08-22T06:00:51.478Z,453.00
2022-08-22T06:01:51.456Z,459.00
2022-08-22T06:02:51.420Z,442.00
2022-08-22T06:03:51.390Z,447.00
2022-08-22T06:04:51.408Z,452.00
2022-08-22T06:05:51.400Z,462.00
2022-08-22T06:06:51.440Z,444.00
2022-08-22T06:07:53.026Z,453.00
2022-08-22T06:08:54.021Z,450.00
2022-08-22T06:09:52.222Z,450.00
2022-08-22T06:10:51.407Z,452.00
2022-08-22T06:11:51.924Z,453.00
2022-08-22T06:12:51.381Z,464.00
2022-08-22T06:13:51.273Z,454.00
2022-08-22T06:14:51.332Z,453.00
2022-08-22T06:15:51.244Z,459.00
2022-08-22T06:16:51.244Z,450.00
2022-08-22T06:17:51.364Z,455.00
2022-08-22T06:18:52.176Z,455.00
2022-08-22T06:19:51.175Z,459.00
2022-08-22T06:20:51.453Z,459.00
2022-08-22T06:21:51.159Z,457.00
2022-08-22T06:22:51.183Z,460.00
2022-08-22T06:23:51.133Z,457.00
2022-08-22T06:24:51.234Z,453.00
2022-08-22T06:25:51.103Z,441.00
2022-08-22T06:26:51.153Z,446.00
2022-08-22T06:27:51.082Z,449.00
2022-08-22T06:28:54.477Z,454.00
2022-08-22T06:29:51.074Z,452.00
2022-08-22T06:30:51.075Z,452.00
2022-08-22T06:31:51.043Z,442.00
2022-08-22T06:32:58.921Z,448.00
2022-08-22T06:33:52.040Z,450.00
2022-08-22T06:34:50.986Z,443.00
2022-08-22T06:35:50.968Z,443.00
2022-08-22T06:36:51.093Z,447.00
2022-08-22T06:37:50.953Z,456.00
2022-08-22T06:38:50.944Z,452.00
2022-08-22T06:39:50.950Z,449.00
2022-08-22T06:40:50.957Z,454.00
2022-08-22T06:41:50.913Z,451.00
2022-08-22T06:42:50.895Z,452.00
2022-08-22T06:43:50.892Z,454.00
2022-08-22T06:44:50.854Z,455.00
2022-08-22T06:45:50.836Z,450.00
2022-08-22T06:46:50.834Z,445.00
2022-08-22T06:47:52.210Z,446.00
2022-08-22T06:48:50.833Z,452.00
2022-08-22T06:49:50.847Z,456.00
2022-08-22T06:50:50.768Z,447.00
2022-08-22T06:51:50.777Z,448.00
2022-08-22T06:52:50.767Z,453.00
2022-08-22T06:53:50.840Z,449.00
2022-08-22T06:54:50.758Z,449.00
2022-08-22T06:55:50.707Z,454.00
2022-08-22T06:56:50.733Z,450.00
2022-08-22T06:57:50.698Z,448.00
2022-08-22T06:58:50.676Z,443.00
2022-08-22T06:59:50.679Z,455.00
2022-08-22T07:00:53.523Z,452.00
2022-08-22T07:01:51.761Z,447.00
2022-08-22T07:02:50.629Z,444.00
2022-08-22T07:03:50.620Z,451.00
2022-08-22T07:04:50.589Z,446.00
2022-08-22T07:05:50.589Z,450.00
2022-08-22T07:06:50.651Z,452.00
2022-08-22T07:07:50.557Z,450.00
2022-08-22T07:08:50.530Z,454.00
2022-08-22T07:09:50.570Z,452.00
2022-08-22T07:10:50.521Z,446.00
2022-08-22T07:11:50.528Z,449.00
2022-08-22T07:12:50.486Z,451.00
2022-08-22T07:13:50.511Z,447.00
2022-08-22T07:14:50.453Z,441.00
2022-08-22T07:15:50.452Z,449.00
2022-08-22T07:16:50.478Z,448.00
2022-08-22T07:17:50.447Z,445.00
2022-08-22T07:18:50.400Z,445.00
2022-08-22T07:19:50.431Z,452.00
2022-08-22T07:20:50.376Z,451.00
2022-08-22T07:21:50.397Z,455.00
2022-08-22T07:22:53.300Z,438.00
2022-08-22T07:23:50.364Z,448.00
2022-08-22T07:24:50.324Z,449.00
2022-08-22T07:25:50.310Z,442.00
2022-08-22T07:26:50.332Z,450.00
2022-08-22T07:27:50.289Z,448.00
2022-08-22T07:28:51.598Z,446.00
2022-08-22T07:29:51.410Z,445.00
2022-08-22T07:30:50.270Z,450.00
2022-08-22T07:31:50.240Z,458.00
2022-08-22T07:32:50.362Z,446.00
2022-08-22T07:33:50.241Z,460.00
2022-08-22T07:34:50.367Z,448.00
2022-08-22T07:35:53.205Z,450.00
2022-08-22T07:36:50.160Z,452.00
2022-08-22T07:37:50.162Z,448.00
2022-08-22T07:38:50.132Z,446.00
2022-08-22T07:39:50.299Z,464.00
2022-08-22T07:40:50.112Z,441.00
2022-08-22T07:41:50.189Z,445.00
2022-08-22T07:42:50.412Z,448.00
2022-08-22T07:43:50.211Z,448.00
2022-08-22T07:44:50.972Z,448.00
2022-08-22T07:45:50.185Z,446.00
2022-08-22T07:46:50.041Z,449.00
2022-08-22T07:47:50.012Z,444.00
2022-08-22T07:49:08.018Z,445.00
2022-08-22T07:49:50.996Z,443.00
2022-08-22T07:50:50.063Z,441.00
2022-08-22T07:51:49.963Z,442.00
2022-08-22T07:52:49.965Z,445.00
2022-08-22T07:53:49.983Z,439.00
2022-08-22T07:54:49.953Z,450.00
2022-08-22T07:55:50.050Z,452.00
2022-08-22T07:56:49.906Z,451.00
2022-08-22T07:57:49.893Z,448.00
2022-08-22T07:58:49.893Z,448.00
2022-08-22T07:59:50.023Z,442.00
2022-08-22T08:00:49.857Z,444.00
2022-08-22T08:01:49.922Z,448.00
2022-08-22T08:02:50.545Z,453.00
2022-08-22T08:03:49.846Z,445.00
2022-08-22T08:04:49.795Z,450.00
2022-08-22T08:05:49.781Z,453.00
2022-08-22T08:06:49.815Z,452.00
2022-08-22T08:07:49.776Z,455.00
2022-08-22T08:08:49.744Z,447.00
2022-08-22T08:09:49.752Z,450.00
2022-08-22T08:10:50.424Z,449.00
2022-08-22T08:11:49.709Z,456.00
2022-08-22T08:13:01.982Z,451.00
2022-08-22T08:13:50.674Z,456.00
2022-08-22T08:14:49.767Z,456.00
2022-08-22T08:15:49.675Z,448.00
2022-08-22T08:16:49.693Z,449.00
2022-08-22T08:17:49.635Z,457.00
2022-08-22T08:18:49.739Z,451.00
2022-08-22T08:19:49.617Z,443.00
2022-08-22T08:20:49.588Z,447.00
2022-08-22T08:21:49.576Z,441.00
2022-08-22T08:22:49.566Z,446.00
2022-08-22T08:23:49.655Z,457.00
2022-08-22T08:24:49.545Z,452.00
2022-08-22T08:25:49.529Z,452.00
2022-08-22T08:26:49.562Z,450.00
2022-08-22T08:28:00.161Z,448.00
2022-08-22T08:28:50.479Z,452.00
2022-08-22T08:29:50.421Z,448.00
2022-08-22T08:30:49.547Z,455.00
2022-08-22T08:31:49.461Z,454.00
2022-08-22T08:32:49.431Z,449.00
2022-08-22T08:33:51.189Z,461.00
2022-08-22T08:34:49.455Z,455.00
2022-08-22T08:36:02.011Z,455.00
2022-08-22T08:36:50.435Z,454.00
2022-08-22T08:37:49.410Z,450.00
2022-08-22T08:38:49.337Z,452.00
2022-08-22T08:39:49.445Z,460.00
2022-08-22T08:40:49.319Z,445.00
2022-08-22T08:41:49.399Z,444.00
2022-08-22T08:42:49.306Z,453.00
2022-08-22T08:43:49.268Z,449.00
2022-08-22T08:44:49.283Z,444.00
2022-08-22T08:45:49.256Z,443.00
2022-08-22T08:46:55.522Z,447.00
2022-08-22T08:47:50.289Z,454.00
2022-08-22T08:48:49.233Z,454.00
2022-08-22T08:49:50.549Z,433.00
2022-08-22T08:50:49.270Z,445.00
2022-08-22T08:51:49.202Z,442.00
2022-08-22T08:52:52.884Z,450.00
2022-08-22T08:53:49.149Z,450.00
2022-08-22T08:54:49.170Z,449.00
2022-08-22T08:55:49.124Z,445.00
2022-08-22T08:56:49.166Z,464.00
2022-08-22T08:57:50.099Z,457.00
2022-08-22T08:58:49.069Z,446.00
2022-08-22T08:59:49.141Z,451.00
2022-08-22T09:00:49.136Z,460.00
2022-08-22T09:01:49.052Z,422.00
2022-08-22T09:02:49.051Z,451.00
2022-08-22T09:03:49.028Z,454.00
2022-08-22T09:04:49.041Z,432.00
2022-08-22T09:05:49.001Z,461.00
2022-08-22T09:06:50.677Z,450.00
2022-08-22T09:07:49.962Z,453.00
2022-08-22T09:08:52.662Z,460.00
2022-08-22T09:09:52.336Z,454.00
2022-08-22T09:10:48.925Z,449.00
2022-08-22T09:11:48.952Z,448.00
2022-08-22T09:12:54.422Z,449.00
2022-08-22T09:13:49.879Z,446.00
2022-08-22T09:14:48.905Z,449.00
2022-08-22T09:16:02.324Z,450.00
2022-08-22T09:16:51.798Z,449.00
2022-08-22T09:17:48.852Z,446.00
2022-08-22T09:18:48.809Z,444.00
2022-08-22T09:19:49.127Z,450.00
2022-08-22T09:20:49.493Z,446.00
2022-08-22T09:21:48.792Z,441.00
2022-08-22T09:22:50.654Z,443.00
2022-08-22T09:23:48.752Z,445.00
2022-08-22T09:24:48.740Z,440.00
2022-08-22T09:25:48.722Z,441.00
2022-08-22T09:26:48.704Z,440.00
2022-08-22T09:27:48.740Z,442.00
2022-08-22T09:28:48.714Z,457.00
2022-08-22T09:29:55.204Z,447.00
2022-08-22T09:30:54.120Z,446.00
2022-08-22T09:32:49.651Z,445.00
2022-08-22T09:33:48.614Z,444.00
2022-08-22T09:34:48.655Z,445.00
2022-08-22T09:35:49.091Z,443.00
2022-08-22T09:36:48.588Z,439.00
2022-08-22T09:37:48.588Z,443.00
2022-08-22T09:38:48.632Z,444.00
2022-08-22T09:39:49.428Z,456.00
2022-08-22T09:40:48.522Z,459.00
2022-08-22T09:41:51.779Z,451.00
2022-08-22T09:42:48.735Z,453.00
2022-08-22T09:43:48.955Z,446.00
2022-08-22T09:44:48.528Z,450.00
2022-08-22T09:45:48.514Z,452.00
2022-08-22T09:46:48.442Z,443.00
2022-08-22T09:47:48.516Z,442.00
2022-08-22T09:48:48.415Z,450.00
2022-08-22T09:49:48.414Z,452.00
2022-08-22T09:50:48.395Z,449.00
2022-08-22T09:51:49.406Z,447.00
2022-08-22T09:52:48.366Z,444.00
2022-08-22T09:53:48.345Z,442.00
2022-08-22T09:54:48.371Z,447.00
2022-08-22T09:55:48.343Z,435.00
2022-08-22T09:56:48.327Z,440.00
2022-08-22T09:57:48.322Z,450.00
2022-08-22T09:58:48.355Z,443.00
2022-08-22T09:59:48.266Z,445.00
2022-08-22T10:00:54.527Z,447.00
2022-08-22T10:01:49.332Z,445.00
2022-08-22T10:02:50.380Z,474.00
2022-08-22T10:03:48.225Z,441.00
2022-08-22T10:04:48.196Z,451.00
2022-08-22T10:05:48.235Z,457.00
2022-08-22T10:06:48.166Z,439.00
2022-08-22T10:07:51.508Z,444.00
2022-08-22T10:08:48.156Z,445.00
2022-08-22T10:09:48.195Z,447.00
2022-08-22T10:10:49.119Z,454.00
2022-08-22T10:11:48.117Z,452.00
2022-08-22T10:12:48.126Z,447.00
2022-08-22T10:13:48.125Z,446.00
2022-08-22T10:14:50.599Z,441.00
2022-08-22T10:15:48.081Z,449.00
2022-08-22T10:16:48.351Z,436.00
2022-08-22T10:17:48.027Z,454.00
2022-08-22T10:18:53.778Z,446.00
2022-08-22T10:19:49.018Z,445.00
2022-08-22T10:20:48.036Z,447.00
2022-08-22T10:21:47.991Z,438.00
2022-08-22T10:22:47.959Z,463.00
2022-08-22T10:23:47.985Z,448.00
2022-08-22T10:24:47.929Z,447.00
2022-08-22T10:25:48.062Z,440.00
2022-08-22T10:26:47.908Z,446.00
2022-08-22T10:27:47.901Z,446.00
2022-08-22T10:28:47.879Z,442.00
2022-08-22T10:29:47.870Z,443.00
2022-08-22T10:30:47.903Z,437.00
2022-08-22T10:31:58.677Z,443.00
2022-08-22T10:32:48.829Z,443.00
2022-08-22T10:33:47.812Z,446.00
2022-08-22T10:34:47.821Z,446.00
2022-08-22T10:35:47.812Z,448.00
2022-08-22T10:36:47.840Z,452.00
2022-08-22T10:37:48.634Z,448.00
2022-08-22T10:38:47.750Z,448.00
2022-08-22T10:39:47.844Z,448.00
2022-08-22T10:40:47.737Z,449.00
2022-08-22T10:41:47.743Z,452.00
2022-08-22T10:42:47.692Z,445.00
2022-08-22T10:43:47.798Z,445.00
2022-08-22T10:44:48.692Z,445.00
2022-08-22T10:45:47.728Z,442.00
2022-08-22T10:46:47.658Z,440.00
2022-08-22T10:47:47.628Z,441.00
2022-08-22T10:48:47.621Z,446.00
2022-08-22T10:49:49.094Z,455.00
2022-08-22T10:50:47.611Z,446.00
2022-08-22T10:51:47.583Z,443.00
2022-08-22T10:52:47.601Z,443.00
2022-08-22T10:53:47.543Z,448.00
2022-08-22T10:54:47.603Z,447.00
2022-08-22T10:55:47.543Z,448.00
2022-08-22T10:56:47.577Z,453.00
2022-08-22T10:57:52.203Z,442.00
2022-08-22T10:58:49.045Z,442.00
2022-08-22T10:59:47.876Z,455.00
2022-08-22T11:00:49.846Z,453.00
2022-08-22T11:01:47.497Z,447.00
2022-08-22T11:02:47.432Z,456.00
2022-08-22T11:03:47.501Z,450.00
2022-08-22T11:04:47.411Z,452.00
2022-08-22T11:05:50.171Z,455.00
2022-08-22T11:06:47.393Z,459.00
2022-08-22T11:07:48.480Z,456.00
2022-08-22T11:08:47.365Z,458.00
2022-08-22T11:09:47.341Z,458.00
2022-08-22T11:10:47.457Z,459.00
2022-08-22T11:11:47.484Z,451.00
2022-08-22T11:12:47.364Z,446.00
2022-08-22T11:13:47.353Z,437.00
2022-08-22T11:14:47.313Z,447.00
2022-08-22T11:15:47.265Z,448.00
2022-08-22T11:16:47.244Z,448.00
2022-08-22T11:17:53.800Z,469.00
2022-08-22T11:19:01.918Z,451.00
2022-08-22T11:19:48.249Z,449.00
2022-08-22T11:20:47.213Z,447.00
2022-08-22T11:21:47.174Z,452.00
2022-08-22T11:22:47.229Z,455.00
2022-08-22T11:23:47.221Z,451.00
2022-08-22T11:24:55.986Z,440.00
2022-08-22T11:25:53.699Z,442.00
2022-08-22T11:26:48.116Z,442.00
2022-08-22T11:27:47.131Z,445.00
2022-08-22T11:28:47.184Z,439.00
2022-08-22T11:29:47.136Z,443.00
2022-08-22T11:30:47.136Z,448.00
2022-08-22T11:31:47.300Z,454.00
2022-08-22T11:32:48.057Z,449.00
2022-08-22T11:33:47.786Z,450.00
2022-08-22T11:34:47.092Z,442.00
2022-08-22T11:35:47.009Z,448.00
2022-08-22T11:36:46.996Z,453.00
2022-08-22T11:37:46.995Z,448.00
2022-08-22T11:38:46.974Z,452.00
2022-08-22T11:39:47.180Z,448.00
2022-08-22T11:40:46.988Z,449.00
2022-08-22T11:41:48.419Z,459.00
2022-08-22T11:42:47.925Z,465.00
2022-08-22T11:43:46.896Z,470.00
2022-08-22T11:44:50.815Z,454.00
2022-08-22T11:45:48.712Z,475.00
2022-08-22T11:46:46.849Z,484.00
2022-08-22T11:47:46.926Z,431.00
2022-08-22T11:48:48.627Z,444.00
2022-08-22T11:49:46.848Z,442.00
2022-08-22T11:50:46.797Z,446.00
2022-08-22T11:51:46.850Z,453.00
2022-08-22T11:52:51.619Z,452.00
2022-08-22T11:53:47.841Z,437.00
2022-08-22T11:54:46.750Z,419.00
2022-08-22T11:55:46.797Z,449.00
2022-08-22T11:56:46.720Z,442.00
2022-08-22T11:57:46.719Z,443.00
2022-08-22T11:58:46.690Z,448.00
2022-08-22T11:59:46.711Z,457.00
2022-08-22T12:00:46.730Z,451.00
2022-08-22T12:01:48.393Z,494.00
2022-08-22T12:02:47.361Z,452.00
2022-08-22T12:03:46.623Z,447.00
2022-08-22T12:04:47.662Z,449.00
2022-08-22T12:05:46.592Z,450.00
2022-08-22T12:06:46.854Z,447.00
2022-08-22T12:07:50.548Z,456.00
2022-08-22T12:08:46.599Z,456.00
2022-08-22T12:09:47.727Z,452.00
2022-08-22T12:10:46.552Z,454.00
2022-08-22T12:11:46.552Z,465.00
2022-08-22T12:12:46.538Z,462.00
2022-08-22T12:13:46.491Z,454.00
2022-08-22T12:14:46.475Z,441.00
2022-08-22T12:15:46.507Z,443.00
2022-08-22T12:16:47.260Z,441.00
2022-08-22T12:17:56.015Z,458.00
2022-08-22T12:18:47.447Z,449.00
2022-08-22T12:20:12.755Z,450.00
2022-08-22T12:20:47.472Z,449.00
2022-08-22T12:21:46.454Z,449.00
2022-08-22T12:22:50.067Z,449.00
2022-08-22T12:23:49.443Z,452.00
2022-08-22T12:24:46.343Z,451.00
2022-08-22T12:25:46.445Z,445.00
2022-08-22T12:26:46.335Z,439.00